createdAt,value
2022-09-01T00:00:09.915Z,10.00
2022-09-01T00:02:40.979Z,10.00
2022-09-01T00:05:09.734Z,10.00
2022-09-01T00:07:38.193Z,9.90
2022-09-01T00:10:10.895Z,9.90
2022-09-01T00:12:39.005Z,9.90
2022-09-01T00:15:11.192Z,9.90
2022-09-01T00:17:43.015Z,9.80
2022-09-01T00:20:19.611Z,9.80
2022-09-01T00:22:50.822Z,9.70
2022-09-01T00:25:20.600Z,9.70
2022-09-01T00:27:51.833Z,9.70
2022-09-01T00:30:19.855Z,9.70
2022-09-01T00:32:47.816Z,9.60
2022-09-01T00:35:16.846Z,9.60
2022-09-01T00:37:48.087Z,9.60
2022-09-01T00:40:16.937Z,9.50
2022-09-01T00:42:45.788Z,9.60
2022-09-01T00:45:14.880Z,9.50
2022-09-01T00:47:42.840Z,9.50
2022-09-01T00:50:12.853Z,9.50
2022-09-01T00:52:52.881Z,9.50
2022-09-01T00:55:26.313Z,9.40
2022-09-01T00:57:53.761Z,9.50
2022-09-01T01:00:25.179Z,9.40
2022-09-01T01:02:57.315Z,9.40
2022-09-01T01:05:33.309Z,9.30
2022-09-01T01:08:02.568Z,9.30
2022-09-01T01:10:44.693Z,9.20
2022-09-01T01:13:15.894Z,9.20
2022-09-01T01:15:44.385Z,9.30
2022-09-01T01:18:22.881Z,9.30
2022-09-01T01:21:24.869Z,9.30
2022-09-01T01:24:04.172Z,9.30
2022-09-01T01:26:35.540Z,9.30
2022-09-01T01:29:03.330Z,9.20
2022-09-01T01:31:35.850Z,9.20
2022-09-01T01:34:08.200Z,9.20
2022-09-01T01:36:39.069Z,9.20
2022-09-01T01:39:16.965Z,9.10
2022-09-01T01:41:49.405Z,9.10
2022-09-01T01:44:22.853Z,9.00
2022-09-01T01:46:54.354Z,9.00
2022-09-01T01:49:24.990Z,9.00
2022-09-01T01:52:04.368Z,9.00
2022-09-01T01:54:35.397Z,9.00
2022-09-01T01:57:08.373Z,8.90
2022-09-01T01:59:36.522Z,9.00
2022-09-01T02:02:10.650Z,9.00
2022-09-01T02:04:42.749Z,9.00
2022-09-01T02:07:14.728Z,9.00
2022-09-01T02:09:48.447Z,9.00
2022-09-01T02:12:19.592Z,9.00
2022-09-01T02:14:50.465Z,9.00
2022-09-01T02:17:17.801Z,8.90
2022-09-01T02:19:47.786Z,8.90
2022-09-01T02:22:15.050Z,8.90
2022-09-01T02:24:54.208Z,8.80
2022-09-01T02:27:26.064Z,8.80
2022-09-01T02:29:55.718Z,8.80
2022-09-01T02:32:26.533Z,8.70
2022-09-01T02:34:57.370Z,8.70
2022-09-01T02:37:25.751Z,8.70
2022-09-01T02:39:59.819Z,8.70
2022-09-01T02:42:34.674Z,8.70
2022-09-01T02:45:12.386Z,8.70
2022-09-01T02:47:42.270Z,8.70
2022-09-01T02:50:14.123Z,8.70
2022-09-01T02:52:48.843Z,8.70
2022-09-01T02:55:21.179Z,8.70
2022-09-01T02:57:57.307Z,8.70
2022-09-01T03:00:33.658Z,8.70
2022-09-01T03:03:03.347Z,8.70
2022-09-01T03:05:34.773Z,8.70
2022-09-01T03:08:05.049Z,8.70
2022-09-01T03:10:35.814Z,8.80
2022-09-01T03:13:09.590Z,8.80
2022-09-01T03:15:40.513Z,8.80
2022-09-01T03:18:11.414Z,8.70
2022-09-01T03:20:43.294Z,8.80
2022-09-01T03:23:15.112Z,8.80
2022-09-01T03:25:48.294Z,8.80
2022-09-01T03:28:17.187Z,8.80
2022-09-01T03:30:50.534Z,8.70
2022-09-01T03:33:23.922Z,8.70
2022-09-01T03:35:55.105Z,8.70
2022-09-01T03:38:26.721Z,8.60
2022-09-01T03:41:06.166Z,8.70
2022-09-01T03:43:39.121Z,8.60
2022-09-01T03:46:24.655Z,8.60
2022-09-01T03:49:06.835Z,8.60
2022-09-01T03:51:39.396Z,8.60
2022-09-01T03:54:07.116Z,8.50
2022-09-01T03:56:35.054Z,8.50
2022-09-01T03:59:17.409Z,8.60
2022-09-01T04:01:45.961Z,8.50
2022-09-01T04:04:23.136Z,8.50
2022-09-01T04:06:50.341Z,8.50
2022-09-01T04:09:25.595Z,8.50
2022-09-01T04:11:54.026Z,8.60
2022-09-01T04:14:21.342Z,8.60
2022-09-01T04:17:07.026Z,8.50
2022-09-01T04:19:40.576Z,8.50
2022-09-01T04:22:14.652Z,8.50
2022-09-01T04:24:46.612Z,8.50
2022-09-01T04:27:16.687Z,8.50
2022-09-01T04:29:48.701Z,8.40
2022-09-01T04:32:17.216Z,8.40
2022-09-01T04:34:52.271Z,8.40
2022-09-01T04:37:22.000Z,8.70
2022-09-01T04:39:56.107Z,8.40
2022-09-01T04:42:32.791Z,8.50
2022-09-01T04:45:10.392Z,8.50
2022-09-01T04:47:42.556Z,8.60
2022-09-01T04:50:17.956Z,8.70
2022-09-01T04:52:46.628Z,8.80
2022-09-01T04:55:18.297Z,8.80
2022-09-01T04:57:49.734Z,8.90
2022-09-01T05:00:24.007Z,8.90
2022-09-01T05:03:03.298Z,9.00
2022-09-01T05:05:44.436Z,9.10
2022-09-01T05:08:14.302Z,9.20
2022-09-01T05:10:53.519Z,9.20
2022-09-01T05:13:23.038Z,9.30
2022-09-01T05:16:06.582Z,9.40
2022-09-01T05:18:34.282Z,9.50
2022-09-01T05:21:10.067Z,9.60
2022-09-01T05:23:41.559Z,9.70
2022-09-01T05:26:19.802Z,9.70
2022-09-01T05:28:56.683Z,9.80
2022-09-01T05:31:29.341Z,9.90
2022-09-01T05:33:58.541Z,10.00
2022-09-01T05:36:27.165Z,10.00
2022-09-01T05:38:54.875Z,10.10
2022-09-01T05:41:26.682Z,10.20
2022-09-01T05:44:00.086Z,10.30
2022-09-01T05:46:30.356Z,10.40
2022-09-01T05:48:57.809Z,10.50
2022-09-01T05:51:46.230Z,10.60
2022-09-01T05:54:18.898Z,10.70
2022-09-01T05:56:46.339Z,10.80
2022-09-01T05:59:23.616Z,10.90
2022-09-01T06:01:53.786Z,11.00
2022-09-01T06:04:25.641Z,11.10
2022-09-01T06:07:05.661Z,11.20
2022-09-01T06:09:33.742Z,11.30
2022-09-01T06:12:04.183Z,11.40
2022-09-01T06:14:31.488Z,11.40
2022-09-01T06:16:59.186Z,11.50
2022-09-01T06:19:37.116Z,11.60
2022-09-01T06:22:05.702Z,11.70
2022-09-01T06:24:34.239Z,11.80
2022-09-01T06:27:09.173Z,11.90
2022-09-01T06:29:42.497Z,12.00
2022-09-01T06:32:10.643Z,12.10
2022-09-01T06:34:43.873Z,12.20
2022-09-01T06:37:15.770Z,12.20
2022-09-01T06:39:44.232Z,12.30
2022-09-01T06:42:14.224Z,12.40
2022-09-01T06:44:41.645Z,12.50
2022-09-01T06:47:09.384Z,12.60
2022-09-01T06:49:40.326Z,12.60
2022-09-01T06:52:07.679Z,12.70
2022-09-01T06:54:41.673Z,12.80
2022-09-01T06:59:59.691Z,12.90
2022-09-01T07:02:27.538Z,13.00
2022-09-01T07:04:55.229Z,13.10
2022-09-01T07:10:21.263Z,13.30
2022-09-01T07:13:11.861Z,13.40
2022-09-01T07:18:35.472Z,13.60
2022-09-01T07:21:36.761Z,13.80
2022-09-01T07:24:13.499Z,13.90
2022-09-01T07:26:49.049Z,14.00
2022-09-01T07:29:20.385Z,14.10
2022-09-01T07:31:49.484Z,14.30
2022-09-01T07:39:53.192Z,14.70
2022-09-01T07:45:30.360Z,14.90
2022-09-01T07:48:03.684Z,15.00
2022-09-01T07:51:07.605Z,15.10
2022-09-01T07:53:22.780Z,15.20
2022-09-01T07:55:52.512Z,15.30
2022-09-01T07:58:22.309Z,15.40
2022-09-01T08:00:50.205Z,15.40
2022-09-01T08:03:24.822Z,15.50
2022-09-01T08:05:57.961Z,15.60
2022-09-01T08:08:30.142Z,15.70
2022-09-01T08:11:06.357Z,15.80
2022-09-01T08:13:41.795Z,15.80
2022-09-01T08:16:20.058Z,15.90
2022-09-01T08:18:49.179Z,16.00
2022-09-01T08:21:18.674Z,16.10
2022-09-01T08:23:49.900Z,16.30
2022-09-01T08:26:19.204Z,16.30
2022-09-01T08:28:55.085Z,16.40
2022-09-01T08:31:25.073Z,16.50
2022-09-01T08:33:52.813Z,16.60
2022-09-01T08:36:23.968Z,16.70
2022-09-01T08:38:54.139Z,16.80
2022-09-01T08:41:46.805Z,16.90
2022-09-01T08:44:22.628Z,17.00
2022-09-01T08:46:58.120Z,17.10
2022-09-01T08:49:27.613Z,17.20
2022-09-01T08:52:08.012Z,17.30
2022-09-01T08:54:48.545Z,17.40
2022-09-01T08:57:30.001Z,17.50
2022-09-01T08:59:58.000Z,17.60
2022-09-01T09:02:58.610Z,17.60
2022-09-01T09:05:43.510Z,17.70
2022-09-01T09:08:19.527Z,17.80
2022-09-01T09:11:01.322Z,17.90
2022-09-01T09:13:57.303Z,18.00
2022-09-01T09:16:36.505Z,18.10
2022-09-01T09:19:21.876Z,18.10
2022-09-01T09:21:51.389Z,18.20
2022-09-01T09:24:56.400Z,18.30
2022-09-01T09:27:28.865Z,18.40
2022-09-01T09:30:11.210Z,18.50
2022-09-01T09:35:38.757Z,18.50
2022-09-01T09:38:22.639Z,18.60
2022-09-01T09:43:59.229Z,18.70
2022-09-01T09:46:32.656Z,18.90
2022-09-01T09:49:34.535Z,18.90
2022-09-01T09:52:08.924Z,18.90
2022-09-01T09:54:38.434Z,19.00
2022-09-01T09:57:18.319Z,19.10
2022-09-01T09:59:59.349Z,19.20
2022-09-01T10:02:44.961Z,19.20
2022-09-01T10:05:35.888Z,19.30
2022-09-01T10:08:04.613Z,19.40
2022-09-01T10:10:43.124Z,19.40
2022-09-01T10:13:21.371Z,19.40
2022-09-01T10:15:53.174Z,19.40
2022-09-01T10:18:30.222Z,19.50
2022-09-01T10:21:02.182Z,19.60
2022-09-01T10:23:35.037Z,19.70
2022-09-01T10:26:13.573Z,19.80
2022-09-01T10:28:51.742Z,19.80
2022-09-01T10:31:20.541Z,19.80
2022-09-01T10:33:48.937Z,19.90
2022-09-01T10:36:24.462Z,19.90
2022-09-01T10:38:54.354Z,19.90
2022-09-01T10:41:47.192Z,19.90
2022-09-01T10:44:23.880Z,20.00
2022-09-01T10:46:58.765Z,20.10
2022-09-01T10:49:30.402Z,20.20
2022-09-01T10:52:03.250Z,20.20
2022-09-01T10:54:52.560Z,20.30
2022-09-01T10:57:42.973Z,20.20
2022-09-01T11:00:37.473Z,20.30
2022-09-01T11:06:13.289Z,20.50
2022-09-01T11:08:50.339Z,20.50
2022-09-01T11:11:51.636Z,20.60
2022-09-01T11:14:23.330Z,20.70
2022-09-01T11:17:14.405Z,20.70
2022-09-01T11:19:49.335Z,20.80
2022-09-01T11:22:27.419Z,20.90
2022-09-01T11:25:14.470Z,21.10
2022-09-01T11:27:51.175Z,21.20
2022-09-01T11:30:23.546Z,21.30
2022-09-01T11:32:59.803Z,21.30
2022-09-01T11:35:31.247Z,21.40
2022-09-01T11:38:04.744Z,21.40
2022-09-01T11:40:37.295Z,21.50
2022-09-01T11:43:12.459Z,21.50
2022-09-01T11:46:12.785Z,21.50
2022-09-01T11:48:45.516Z,21.50
2022-09-01T11:51:19.543Z,21.40
2022-09-01T11:53:47.902Z,21.40
2022-09-01T11:56:20.700Z,21.40
2022-09-01T11:58:48.992Z,21.40
2022-09-01T12:01:36.170Z,21.40
2022-09-01T12:04:28.770Z,21.40
2022-09-01T12:06:58.298Z,21.50
2022-09-01T12:09:55.034Z,21.50
2022-09-01T12:12:34.188Z,21.60
2022-09-01T12:15:12.234Z,21.50
2022-09-01T12:17:41.532Z,21.50
2022-09-01T12:20:32.778Z,21.60
2022-09-01T12:23:02.706Z,21.50
2022-09-01T12:25:33.958Z,21.50
2022-09-01T12:28:04.128Z,21.50
2022-09-01T12:30:35.590Z,21.50
2022-09-01T12:33:26.776Z,21.60
2022-09-01T12:36:17.059Z,21.60
2022-09-01T12:38:44.469Z,21.60
2022-09-01T12:41:39.108Z,21.60
2022-09-01T12:44:30.505Z,21.70
2022-09-01T12:47:04.198Z,21.70
2022-09-01T12:49:47.982Z,21.80
2022-09-01T12:52:22.280Z,21.80
2022-09-01T12:54:51.721Z,21.80
2022-09-01T12:57:32.171Z,21.90
2022-09-01T13:00:12.223Z,21.80
2022-09-01T13:02:51.003Z,21.80
2022-09-01T13:05:33.664Z,21.80
2022-09-01T13:08:13.905Z,21.90
2022-09-01T13:10:47.831Z,21.90
2022-09-01T13:13:18.660Z,22.00
2022-09-01T13:15:50.538Z,22.00
2022-09-01T13:18:23.356Z,22.00
2022-09-01T13:20:52.017Z,22.00
2022-09-01T13:23:23.314Z,22.00
2022-09-01T13:25:53.797Z,22.00
2022-09-01T13:36:45.558Z,21.90
2022-09-01T13:39:15.680Z,21.90
2022-09-01T13:41:43.893Z,21.80
2022-09-01T13:44:11.773Z,21.70
2022-09-01T13:49:44.611Z,21.70
2022-09-01T13:52:14.183Z,21.60
2022-09-01T13:54:44.600Z,21.60
2022-09-01T13:57:12.504Z,21.70
2022-09-01T13:59:42.024Z,21.80
2022-09-01T14:02:10.628Z,21.80
2022-09-01T14:04:38.386Z,21.80
2022-09-01T14:07:05.973Z,21.80
2022-09-01T14:09:33.600Z,21.90
2022-09-01T14:12:01.057Z,21.90
2022-09-01T14:15:10.475Z,22.00
2022-09-01T14:17:16.136Z,22.00
2022-09-01T14:19:43.467Z,21.90
2022-09-01T14:22:10.816Z,21.80
2022-09-01T14:24:42.710Z,21.90
2022-09-01T14:27:10.128Z,21.90
2022-09-01T14:32:04.980Z,21.90
2022-09-01T14:34:32.359Z,21.90
2022-09-01T14:36:59.611Z,21.90
2022-09-01T14:39:27.562Z,21.80
2022-09-01T14:41:55.580Z,21.70
2022-09-01T14:44:22.931Z,21.80
2022-09-01T14:46:51.034Z,21.80
2022-09-01T14:49:22.457Z,21.80
2022-09-01T14:54:40.585Z,21.80
2022-09-01T14:59:55.104Z,21.80
2022-09-01T15:02:22.379Z,21.80
2022-09-01T15:04:49.732Z,21.70
2022-09-01T15:07:17.254Z,21.70
2022-09-01T15:09:44.410Z,21.60
2022-09-01T15:12:13.809Z,21.60
2022-09-01T15:14:42.087Z,21.60
2022-09-01T15:17:09.776Z,21.60
2022-09-01T15:19:37.287Z,21.60
2022-09-01T15:22:04.945Z,21.70
2022-09-01T15:24:36.203Z,21.70
2022-09-01T15:27:06.691Z,21.70
2022-09-01T15:29:45.082Z,21.70
2022-09-01T15:32:28.027Z,21.70
2022-09-01T15:34:56.288Z,21.70
2022-09-01T15:37:30.568Z,21.80
2022-09-01T15:40:01.145Z,21.80
2022-09-01T15:42:31.836Z,21.80
2022-09-01T15:45:01.077Z,21.80
2022-09-01T15:47:29.873Z,21.90
2022-09-01T15:49:57.310Z,22.00
2022-09-01T15:52:30.322Z,22.00
2022-09-01T15:54:57.787Z,22.10
2022-09-01T15:57:28.357Z,22.10
2022-09-01T15:59:55.927Z,22.20
2022-09-01T16:02:26.255Z,22.30
2022-09-01T16:04:57.053Z,22.30
2022-09-01T16:07:24.401Z,22.30
2022-09-01T16:09:58.267Z,22.40
2022-09-01T16:12:29.686Z,22.40
2022-09-01T16:15:02.051Z,22.50
2022-09-01T16:18:03.019Z,22.40
2022-09-01T16:20:49.273Z,22.50
2022-09-01T16:23:24.015Z,22.50
2022-09-01T16:25:55.400Z,22.60
2022-09-01T16:30:52.743Z,22.70
2022-09-01T16:33:23.589Z,22.80
2022-09-01T16:36:17.889Z,22.80
2022-09-01T16:38:54.009Z,22.90
2022-09-01T16:41:45.141Z,23.00
2022-09-01T16:44:37.925Z,23.00
2022-09-01T16:47:33.593Z,23.10
2022-09-01T16:50:14.973Z,23.10
2022-09-01T16:53:14.634Z,23.10
2022-09-01T16:55:54.014Z,23.20
2022-09-01T16:58:39.685Z,23.20
2022-09-01T17:01:20.927Z,23.20
2022-09-01T17:04:36.998Z,23.20
2022-09-01T17:07:15.934Z,23.20
2022-09-01T17:10:13.813Z,23.30
2022-09-01T17:12:56.288Z,23.50
2022-09-01T17:15:40.960Z,24.00
2022-09-01T17:18:27.698Z,24.60
2022-09-01T17:21:02.516Z,25.20
2022-09-01T17:23:38.359Z,25.70
2022-09-01T17:26:21.553Z,26.10
2022-09-01T17:29:00.439Z,26.40
2022-09-01T17:31:49.422Z,26.50
2022-09-01T17:34:35.027Z,26.60
2022-09-01T17:37:06.390Z,26.70
2022-09-01T17:39:56.112Z,26.40
2022-09-01T17:42:36.847Z,25.40
2022-09-01T17:45:30.885Z,24.40
2022-09-01T17:48:27.226Z,23.70
2022-09-01T17:51:10.660Z,23.30
2022-09-01T17:54:05.839Z,22.80
2022-09-01T17:56:57.873Z,22.40
2022-09-01T18:00:01.894Z,21.90
2022-09-01T18:02:48.837Z,21.50
2022-09-01T18:05:23.782Z,21.00
2022-09-01T18:07:54.960Z,20.60
2022-09-01T18:10:38.543Z,20.20
2022-09-01T18:13:30.500Z,19.80
2022-09-01T18:16:10.416Z,19.50
2022-09-01T18:18:41.816Z,19.20
2022-09-01T18:21:23.807Z,18.90
2022-09-01T18:23:53.117Z,18.70
2022-09-01T18:26:23.034Z,18.50
2022-09-01T18:28:57.375Z,18.20
2022-09-01T18:31:49.971Z,18.00
2022-09-01T18:34:52.646Z,17.80
2022-09-01T18:37:31.714Z,17.50
2022-09-01T18:40:21.441Z,17.30
2022-09-01T18:43:17.250Z,17.10
2022-09-01T18:46:23.215Z,16.90
2022-09-01T18:49:10.861Z,16.80
2022-09-01T18:51:47.555Z,16.60
2022-09-01T18:54:34.503Z,16.40
2022-09-01T18:57:05.097Z,16.20
2022-09-01T18:59:50.069Z,16.10
2022-09-01T19:02:51.919Z,15.90
2022-09-01T19:05:42.451Z,15.80
2022-09-01T19:08:22.429Z,15.60
2022-09-01T19:11:03.682Z,15.50
2022-09-01T19:13:48.695Z,15.40
2022-09-01T19:16:24.845Z,15.30
2022-09-01T19:19:09.335Z,15.10
2022-09-01T19:21:36.938Z,14.90
2022-09-01T19:24:33.882Z,14.80
2022-09-01T19:27:08.965Z,14.60
2022-09-01T19:29:46.845Z,14.50
2022-09-01T19:32:18.784Z,14.30
2022-09-01T19:34:51.981Z,14.10
2022-09-01T19:37:19.559Z,14.00
2022-09-01T19:39:53.950Z,13.80
2022-09-01T19:42:25.797Z,13.70
2022-09-01T19:45:07.303Z,13.60
2022-09-01T19:47:43.603Z,13.40
2022-09-01T19:50:37.506Z,13.40
2022-09-01T19:53:12.424Z,13.30
2022-09-01T19:55:56.545Z,13.20
2022-09-01T19:58:46.684Z,13.20
2022-09-01T20:01:21.245Z,13.10
2022-09-01T20:03:57.862Z,13.00
2022-09-01T20:06:35.997Z,13.00
2022-09-01T20:09:24.505Z,12.90
2022-09-01T20:12:17.339Z,12.90
2022-09-01T20:15:00.243Z,12.80
2022-09-01T20:17:55.707Z,12.80
2022-09-01T20:20:27.502Z,12.70
2022-09-01T20:23:42.189Z,12.70
2022-09-01T20:26:27.450Z,12.60
2022-09-01T20:29:24.337Z,12.60
2022-09-01T20:31:59.401Z,12.50
2022-09-01T20:34:38.327Z,12.50
2022-09-01T20:37:13.522Z,12.40
2022-09-01T20:40:14.669Z,12.30
2022-09-01T20:43:04.313Z,12.30
2022-09-01T20:45:40.395Z,12.20
2022-09-01T20:48:22.057Z,12.20
2022-09-01T20:51:19.484Z,13.60
2022-09-01T20:54:15.295Z,12.10
2022-09-01T20:56:57.526Z,12.10
2022-09-01T21:00:01.345Z,12.00
2022-09-01T21:02:38.022Z,12.00
2022-09-01T21:05:21.056Z,11.90
2022-09-01T21:07:52.302Z,11.80
2022-09-01T21:10:32.462Z,11.80
2022-09-01T21:13:26.910Z,11.80
2022-09-01T21:16:17.619Z,11.70
2022-09-01T21:18:47.916Z,11.70
2022-09-01T21:21:38.882Z,11.60
2022-09-01T21:24:18.516Z,11.60
2022-09-01T21:26:49.953Z,11.50
2022-09-01T21:29:36.220Z,11.50
2022-09-01T21:32:08.720Z,11.50
2022-09-01T21:34:36.263Z,11.40
2022-09-01T21:37:07.527Z,11.40
2022-09-01T21:39:39.190Z,11.40
2022-09-01T21:42:12.505Z,11.30
2022-09-01T21:44:44.777Z,11.30
2022-09-01T21:47:13.106Z,11.20
2022-09-01T21:49:45.582Z,11.20
2022-09-01T21:52:13.818Z,11.10
2022-09-01T21:54:41.101Z,11.10
2022-09-01T21:57:09.746Z,11.10
2022-09-01T21:59:37.048Z,11.10
2022-09-01T22:02:08.183Z,11.00
2022-09-01T22:04:37.779Z,11.00
2022-09-01T22:07:06.938Z,10.90
2022-09-01T22:09:37.102Z,10.90
2022-09-01T22:12:07.592Z,10.90
2022-09-01T22:14:35.052Z,10.90
2022-09-01T22:17:04.710Z,10.80
2022-09-01T22:19:36.103Z,10.80
2022-09-01T22:22:03.760Z,10.80
2022-09-01T22:24:35.609Z,10.80
2022-09-01T22:27:10.434Z,10.70
2022-09-01T22:29:45.664Z,10.60
2022-09-01T22:32:14.036Z,10.80
2022-09-01T22:34:45.360Z,10.60
2022-09-01T22:37:16.790Z,10.50
2022-09-01T22:39:47.419Z,10.40
2022-09-01T22:42:15.737Z,10.40
2022-09-01T22:44:42.889Z,10.40
2022-09-01T22:47:14.100Z,10.30
2022-09-01T22:49:43.996Z,10.30
2022-09-01T22:52:14.617Z,10.20
2022-09-01T22:54:45.424Z,10.20
2022-09-01T22:57:12.781Z,10.20
2022-09-01T22:59:47.137Z,10.20
2022-09-01T23:02:14.795Z,10.10
2022-09-01T23:04:46.802Z,10.10
2022-09-01T23:07:15.105Z,10.00
2022-09-01T23:09:46.142Z,10.00
2022-09-01T23:12:13.657Z,10.00
2022-09-01T23:14:45.574Z,10.00
2022-09-01T23:17:16.896Z,10.00
2022-09-01T23:19:45.182Z,10.00
2022-09-01T23:22:16.525Z,9.90
2022-09-01T23:24:47.899Z,10.00
2022-09-01T23:27:19.003Z,10.00
2022-09-01T23:29:46.241Z,9.90
2022-09-01T23:32:13.497Z,9.90
2022-09-01T23:34:40.877Z,9.90
2022-09-01T23:37:10.437Z,9.80
2022-09-01T23:39:44.693Z,9.80
2022-09-01T23:42:12.068Z,9.80
2022-09-01T23:44:39.883Z,9.80
2022-09-01T23:47:07.046Z,9.80
2022-09-01T23:49:39.065Z,9.80
2022-09-01T23:52:06.567Z,9.70
2022-09-01T23:54:37.819Z,9.70
2022-09-01T23:57:05.185Z,9.70
2022-09-01T23:59:32.390Z,9.60
